createdAt,value
2022-11-25T00:01:24.768Z,1.40
2022-11-25T00:03:53.451Z,1.17
2022-11-25T00:06:28.381Z,1.50
2022-11-25T00:08:59.993Z,1.20
2022-11-25T00:11:27.359Z,1.25
2022-11-25T00:13:55.307Z,1.08
2022-11-25T00:16:24.367Z,1.30
2022-11-25T00:18:52.154Z,1.48
2022-11-25T00:21:21.335Z,1.10
2022-11-25T00:23:56.970Z,1.02
2022-11-25T00:26:24.627Z,1.50
2022-11-25T00:28:52.396Z,1.20
2022-11-25T00:31:24.734Z,0.95
2022-11-25T00:33:52.136Z,1.20
2022-11-25T00:36:19.064Z,1.40
2022-11-25T00:38:45.953Z,1.30
2022-11-25T00:41:31.886Z,1.20
2022-11-25T00:44:17.219Z,1.40
2022-11-25T00:46:44.322Z,0.85
2022-11-25T00:49:10.905Z,1.45
2022-11-25T00:51:37.511Z,1.42
2022-11-25T00:54:04.186Z,1.13
2022-11-25T00:56:31.061Z,1.50
2022-11-25T00:58:58.461Z,1.10
2022-11-25T01:01:25.160Z,1.15
2022-11-25T01:03:52.525Z,1.13
2022-11-25T01:06:22.198Z,1.17
2022-11-25T01:08:48.858Z,0.82
2022-11-25T01:11:19.252Z,1.05
2022-11-25T01:13:46.025Z,1.23
2022-11-25T01:16:15.750Z,0.93
2022-11-25T01:18:43.162Z,1.08
2022-11-25T01:21:18.740Z,1.60
2022-11-25T01:23:46.573Z,1.10
2022-11-25T01:26:15.824Z,1.02
2022-11-25T01:28:44.742Z,1.02
2022-11-25T01:31:20.487Z,0.98
2022-11-25T01:33:51.954Z,0.88
2022-11-25T01:36:19.352Z,0.98
2022-11-25T01:38:53.974Z,1.17
2022-11-25T01:41:21.807Z,1.35
2022-11-25T01:44:06.940Z,1.02
2022-11-25T01:47:10.723Z,0.90
2022-11-25T01:49:42.922Z,0.90
2022-11-25T01:52:29.803Z,1.10
2022-11-25T01:55:01.752Z,1.20
2022-11-25T01:57:32.104Z,0.80
2022-11-25T02:00:00.661Z,1.17
2022-11-25T02:02:28.277Z,1.23
2022-11-25T02:04:59.393Z,0.75
2022-11-25T02:10:16.158Z,0.60
2022-11-25T02:12:44.843Z,1.05
2022-11-25T02:15:12.344Z,0.88
2022-11-25T02:17:39.097Z,0.85
2022-11-25T02:20:15.973Z,1.00
2022-11-25T02:22:51.289Z,0.93
2022-11-25T02:25:23.489Z,1.00
2022-11-25T02:27:54.318Z,0.93
2022-11-25T02:30:20.929Z,0.70
2022-11-25T02:32:49.568Z,0.70
2022-11-25T02:35:27.212Z,0.90
2022-11-25T02:37:56.307Z,0.70
2022-11-25T02:40:23.741Z,0.70
2022-11-25T02:42:50.534Z,0.85
2022-11-25T02:45:21.158Z,0.88
2022-11-25T02:47:49.470Z,0.80
2022-11-25T02:50:16.365Z,0.60
2022-11-25T02:52:43.014Z,0.88
2022-11-25T02:55:10.143Z,0.70
2022-11-25T02:57:36.911Z,0.90
2022-11-25T03:00:04.648Z,0.70
2022-11-25T03:02:31.323Z,0.57
2022-11-25T03:05:01.189Z,0.57
2022-11-25T03:07:27.801Z,0.70
2022-11-25T03:09:54.593Z,0.50
2022-11-25T03:12:21.410Z,0.80
2022-11-25T03:14:52.777Z,0.60
2022-11-25T03:17:19.501Z,0.77
2022-11-25T03:19:46.638Z,0.90
2022-11-25T03:22:13.262Z,0.60
2022-11-25T03:24:39.888Z,0.60
2022-11-25T03:27:08.656Z,0.52
2022-11-25T03:29:35.934Z,0.70
2022-11-25T03:32:08.096Z,0.60
2022-11-25T03:34:36.928Z,0.63
2022-11-25T03:37:04.651Z,1.00
2022-11-25T03:39:32.593Z,0.80
2022-11-25T03:41:59.413Z,0.90
2022-11-25T03:44:26.122Z,1.00
2022-11-25T03:46:52.791Z,0.70
2022-11-25T03:49:19.529Z,0.52
2022-11-25T03:51:47.246Z,0.60
2022-11-25T03:54:16.203Z,0.70
2022-11-25T03:57:12.331Z,0.70
2022-11-25T03:59:39.741Z,0.60
2022-11-25T04:02:07.036Z,0.60
2022-11-25T04:04:34.802Z,0.50
2022-11-25T04:07:01.568Z,0.73
2022-11-25T04:09:29.001Z,0.50
2022-11-25T04:12:18.474Z,0.68
2022-11-25T04:14:52.197Z,0.57
2022-11-25T04:17:18.842Z,0.60
2022-11-25T04:19:46.164Z,0.80
2022-11-25T04:22:13.426Z,0.88
2022-11-25T04:24:44.154Z,0.60
2022-11-25T04:27:13.373Z,0.68
2022-11-25T04:29:40.758Z,0.80
2022-11-25T04:32:08.877Z,0.65
2022-11-25T04:34:36.565Z,0.70
2022-11-25T04:37:03.808Z,0.52
2022-11-25T04:39:30.437Z,0.70
2022-11-25T04:42:19.494Z,0.88
2022-11-25T04:45:07.573Z,0.70
2022-11-25T04:47:38.635Z,0.55
2022-11-25T04:50:09.036Z,0.80
2022-11-25T04:52:45.316Z,0.80
2022-11-25T04:55:13.590Z,0.50
2022-11-25T04:57:40.374Z,0.52
2022-11-25T05:00:09.377Z,0.90
2022-11-25T05:02:36.326Z,0.60
2022-11-25T05:05:12.747Z,0.65
2022-11-25T05:07:39.853Z,0.70
2022-11-25T05:10:08.619Z,0.70
2022-11-25T05:12:42.858Z,0.60
2022-11-25T05:15:14.688Z,0.50
2022-11-25T05:17:45.061Z,0.60
2022-11-25T05:20:12.904Z,0.70
2022-11-25T05:22:39.449Z,0.80
2022-11-25T05:25:09.463Z,0.57
2022-11-25T05:27:40.660Z,0.80
2022-11-25T05:30:09.934Z,0.70
2022-11-25T05:32:37.872Z,0.57
2022-11-25T05:35:09.748Z,0.60
2022-11-25T05:37:38.861Z,0.52
2022-11-25T05:40:08.308Z,0.50
2022-11-25T05:43:00.920Z,0.80
2022-11-25T05:45:30.525Z,0.40
2022-11-25T05:47:57.917Z,0.88
2022-11-25T05:50:26.854Z,0.70
2022-11-25T05:53:22.599Z,0.70
2022-11-25T05:55:56.446Z,0.77
2022-11-25T05:58:42.534Z,0.52
2022-11-25T06:01:10.798Z,0.90
2022-11-25T06:03:38.790Z,0.50
2022-11-25T06:06:07.648Z,0.57
2022-11-25T06:08:35.603Z,0.52
2022-11-25T06:11:11.859Z,0.70
2022-11-25T06:13:40.102Z,0.60
2022-11-25T06:16:17.436Z,0.88
2022-11-25T06:18:49.921Z,0.50
2022-11-25T06:21:17.838Z,0.40
2022-11-25T06:23:47.362Z,0.57
2022-11-25T06:26:21.571Z,0.60
2022-11-25T06:28:50.375Z,1.08
2022-11-25T06:31:20.435Z,0.63
2022-11-25T06:33:55.069Z,0.65
2022-11-25T06:36:22.484Z,0.80
2022-11-25T06:38:51.826Z,0.70
2022-11-25T06:41:18.941Z,1.25
2022-11-25T06:43:45.660Z,1.00
2022-11-25T06:46:14.667Z,0.70
2022-11-25T06:48:44.145Z,0.80
2022-11-25T06:51:12.259Z,1.00
2022-11-25T06:53:39.266Z,0.95
2022-11-25T06:56:11.368Z,0.98
2022-11-25T06:58:38.530Z,1.00
2022-11-25T07:01:07.864Z,1.40
2022-11-25T07:03:36.074Z,1.35
2022-11-25T07:06:03.423Z,1.67
2022-11-25T07:08:33.895Z,1.40
2022-11-25T07:11:06.302Z,1.20
2022-11-25T07:13:34.009Z,1.27
2022-11-25T07:16:04.767Z,1.40
2022-11-25T07:18:32.936Z,1.63
2022-11-25T07:21:04.627Z,1.40
2022-11-25T07:23:31.240Z,1.27
2022-11-25T07:26:10.513Z,1.55
2022-11-25T07:28:38.400Z,1.27
2022-11-25T07:31:27.500Z,1.40
2022-11-25T07:34:00.772Z,1.50
2022-11-25T07:36:28.342Z,1.83
2022-11-25T07:38:55.148Z,1.77
2022-11-25T07:41:23.658Z,1.20
2022-11-25T07:43:52.834Z,1.42
2022-11-25T07:46:27.316Z,1.33
2022-11-25T07:48:59.869Z,1.17
2022-11-25T07:51:31.554Z,1.17
2022-11-25T07:54:01.016Z,1.63
2022-11-25T07:56:28.693Z,1.90
2022-11-25T07:58:55.872Z,0.93
2022-11-25T08:01:22.647Z,1.52
2022-11-25T08:03:50.111Z,0.90
2022-11-25T08:06:20.302Z,1.30
2022-11-25T08:08:54.543Z,1.60
2022-11-25T08:11:26.602Z,1.40
2022-11-25T08:13:53.500Z,1.48
2022-11-25T08:16:21.898Z,1.40
2022-11-25T08:18:48.708Z,1.10
2022-11-25T08:21:16.769Z,1.40
2022-11-25T08:23:44.391Z,1.35
2022-11-25T08:26:14.142Z,1.50
2022-11-25T08:28:41.794Z,1.15
2022-11-25T08:31:11.152Z,1.45
2022-11-25T08:33:37.789Z,1.58
2022-11-25T08:36:05.445Z,1.33
2022-11-25T08:38:33.019Z,1.42
2022-11-25T08:41:00.463Z,1.60
2022-11-25T08:43:29.553Z,1.55
2022-11-25T08:45:57.245Z,1.58
2022-11-25T08:48:23.965Z,1.40
2022-11-25T08:50:53.985Z,1.65
2022-11-25T08:53:21.341Z,1.02
2022-11-25T08:55:48.276Z,1.40
2022-11-25T08:58:14.910Z,1.35
2022-11-25T09:00:42.555Z,1.58
2022-11-25T09:03:09.587Z,1.10
2022-11-25T09:05:40.315Z,1.23
2022-11-25T09:08:10.041Z,1.13
2022-11-25T09:10:39.588Z,1.15
2022-11-25T09:13:06.996Z,1.00
2022-11-25T09:15:36.222Z,1.13
2022-11-25T09:18:10.744Z,1.23
2022-11-25T09:20:39.487Z,3.00
2022-11-25T09:23:07.700Z,2.58
2022-11-25T09:25:35.411Z,1.67
2022-11-25T09:28:02.213Z,2.17
2022-11-25T09:30:29.074Z,2.05
2022-11-25T09:32:56.303Z,2.25
2022-11-25T09:35:24.329Z,1.95
2022-11-25T09:37:50.953Z,2.00
2022-11-25T09:40:35.765Z,1.70
2022-11-25T09:43:36.427Z,1.70
2022-11-25T09:46:43.226Z,1.48
2022-11-25T09:49:31.328Z,1.30
2022-11-25T09:52:17.456Z,1.25
2022-11-25T09:55:05.014Z,1.23
2022-11-25T09:57:57.893Z,1.30
2022-11-25T10:00:36.280Z,1.10
2022-11-25T10:03:07.248Z,1.10
2022-11-25T10:05:38.178Z,1.17
2022-11-25T10:08:23.585Z,1.10
2022-11-25T10:10:55.399Z,1.17
2022-11-25T10:13:32.395Z,1.10
2022-11-25T10:16:01.954Z,0.93
2022-11-25T10:18:39.902Z,0.98
2022-11-25T10:21:06.608Z,0.85
2022-11-25T10:23:37.015Z,1.10
2022-11-25T10:26:12.986Z,1.02
2022-11-25T10:28:41.832Z,0.93
2022-11-25T10:31:20.869Z,1.10
2022-11-25T10:33:52.817Z,0.88
2022-11-25T10:36:34.203Z,0.93
2022-11-25T10:39:17.869Z,0.80
2022-11-25T10:41:51.001Z,0.80
2022-11-25T10:44:25.869Z,0.80
2022-11-25T10:47:16.557Z,0.80
2022-11-25T10:50:01.961Z,0.88
2022-11-25T10:55:17.204Z,0.75
2022-11-25T10:57:44.611Z,0.90
2022-11-25T11:00:27.916Z,0.77
2022-11-25T11:02:55.181Z,0.73
2022-11-25T11:05:46.879Z,0.93
2022-11-25T11:08:27.580Z,0.70
2022-11-25T11:11:21.464Z,1.08
2022-11-25T11:13:50.556Z,0.90
2022-11-25T11:16:36.989Z,1.05
2022-11-25T11:19:04.060Z,0.65
2022-11-25T11:21:33.696Z,1.10
2022-11-25T11:24:00.965Z,2.00
2022-11-25T11:26:33.500Z,1.20
2022-11-25T11:29:07.296Z,1.25
2022-11-25T11:31:40.088Z,1.20
2022-11-25T11:34:09.625Z,0.98
2022-11-25T11:37:17.606Z,1.20
2022-11-25T11:40:11.600Z,1.05
2022-11-25T11:43:03.171Z,1.50
2022-11-25T11:46:08.290Z,0.93
2022-11-25T11:48:43.748Z,0.95
2022-11-25T11:51:39.043Z,1.35
2022-11-25T11:54:12.240Z,0.80
2022-11-25T11:56:44.520Z,0.88
2022-11-25T11:59:23.086Z,1.10
2022-11-25T12:01:58.609Z,1.35
2022-11-25T12:04:30.374Z,1.33
2022-11-25T12:07:07.744Z,0.82
2022-11-25T12:09:39.048Z,1.15
2022-11-25T12:12:08.635Z,0.80
2022-11-25T12:15:01.926Z,1.00
2022-11-25T12:17:41.670Z,1.08
2022-11-25T12:20:19.000Z,1.23
2022-11-25T12:22:50.745Z,1.30
2022-11-25T12:25:21.773Z,2.10
2022-11-25T12:27:58.879Z,1.13
2022-11-25T12:30:31.464Z,1.25
2022-11-25T12:33:16.198Z,0.90
2022-11-25T12:36:02.277Z,1.17
2022-11-25T12:38:57.043Z,0.93
2022-11-25T12:41:30.987Z,0.98
2022-11-25T12:44:14.910Z,1.33
2022-11-25T12:46:45.706Z,0.90
2022-11-25T12:49:22.332Z,0.70
2022-11-25T12:51:49.706Z,0.80
2022-11-25T12:54:16.182Z,0.60
2022-11-25T12:57:07.662Z,1.10
2022-11-25T13:00:39.992Z,0.60
2022-11-25T13:03:26.264Z,0.70
2022-11-25T13:05:59.586Z,0.70
2022-11-25T13:08:59.568Z,0.93
2022-11-25T13:11:58.301Z,0.80
2022-11-25T13:14:54.887Z,0.80
2022-11-25T13:17:22.904Z,0.90
2022-11-25T13:19:50.238Z,0.77
2022-11-25T13:22:29.865Z,0.88
2022-11-25T13:24:59.692Z,0.57
2022-11-25T13:27:38.411Z,0.50
2022-11-25T13:30:33.107Z,0.75
2022-11-25T13:33:11.773Z,0.80
2022-11-25T13:35:50.413Z,0.65
2022-11-25T13:38:29.125Z,0.60
2022-11-25T13:41:01.530Z,0.55
2022-11-25T13:43:30.286Z,0.77
2022-11-25T13:45:57.342Z,0.82
2022-11-25T13:48:29.394Z,0.43
2022-11-25T13:51:22.826Z,1.00
2022-11-25T13:53:55.634Z,0.75
2022-11-25T13:56:34.910Z,0.40
2022-11-25T13:59:10.682Z,0.40
2022-11-25T14:01:42.270Z,0.63
2022-11-25T14:04:11.061Z,0.57
2022-11-25T14:06:57.374Z,0.40
2022-11-25T14:09:53.101Z,0.65
2022-11-25T14:12:30.656Z,0.95
2022-11-25T14:15:12.787Z,0.40
2022-11-25T14:18:01.008Z,0.52
2022-11-25T14:20:39.390Z,0.32
2022-11-25T14:23:24.046Z,0.50
2022-11-25T14:25:53.850Z,0.43
2022-11-25T14:28:45.866Z,1.00
2022-11-25T14:31:16.396Z,0.50
2022-11-25T14:33:52.798Z,0.55
2022-11-25T14:36:24.469Z,0.50
2022-11-25T14:38:59.696Z,0.60
2022-11-25T14:41:35.378Z,0.40
2022-11-25T14:44:05.605Z,0.40
2022-11-25T14:46:32.191Z,0.50
2022-11-25T14:49:01.598Z,0.40
2022-11-25T14:51:35.260Z,0.40
2022-11-25T14:54:02.099Z,0.50
2022-11-25T14:56:34.248Z,0.70
2022-11-25T14:59:02.003Z,0.60
2022-11-25T15:01:30.862Z,0.30
2022-11-25T15:04:19.014Z,0.43
2022-11-25T15:06:52.371Z,0.43
2022-11-25T15:09:21.068Z,0.30
2022-11-25T15:11:48.031Z,0.65
2022-11-25T15:14:24.489Z,0.60
2022-11-25T15:16:51.434Z,0.40
2022-11-25T15:19:26.047Z,0.40
2022-11-25T15:24:54.764Z,0.73
2022-11-25T15:27:27.629Z,0.50
2022-11-25T15:29:56.629Z,0.40
2022-11-25T15:32:31.260Z,0.50
2022-11-25T15:34:59.889Z,0.30
2022-11-25T15:37:27.141Z,0.20
2022-11-25T15:40:48.789Z,0.40
2022-11-25T15:43:26.562Z,0.30
2022-11-25T15:46:00.275Z,0.50
2022-11-25T15:48:33.652Z,0.28
2022-11-25T15:51:03.984Z,0.30
2022-11-25T15:53:36.709Z,0.25
2022-11-25T15:56:05.852Z,0.30
2022-11-25T15:58:32.462Z,0.38
2022-11-25T16:01:07.491Z,0.40
2022-11-25T16:03:35.353Z,0.30
2022-11-25T16:06:02.714Z,0.40
2022-11-25T16:08:37.461Z,0.32
2022-11-25T16:11:12.227Z,0.30
2022-11-25T16:13:39.760Z,0.20
2022-11-25T16:16:15.516Z,0.25
2022-11-25T16:19:06.569Z,0.25
2022-11-25T16:21:35.815Z,0.35
2022-11-25T16:24:08.185Z,0.50
2022-11-25T16:26:56.832Z,0.60
2022-11-25T16:29:40.980Z,0.60
2022-11-25T16:32:16.349Z,0.30
2022-11-25T16:34:44.306Z,0.30
2022-11-25T16:37:11.102Z,0.40
2022-11-25T16:39:38.852Z,0.38
2022-11-25T16:42:06.210Z,0.40
2022-11-25T16:44:34.164Z,0.30
2022-11-25T16:47:01.262Z,0.47
2022-11-25T16:49:30.231Z,0.40
2022-11-25T16:51:57.443Z,0.65
2022-11-25T16:54:24.025Z,0.47
2022-11-25T16:56:52.345Z,0.40
2022-11-25T16:59:25.704Z,0.52
2022-11-25T17:01:52.778Z,0.82
2022-11-25T17:04:19.788Z,0.40
2022-11-25T17:07:03.800Z,0.52
2022-11-25T17:09:34.406Z,0.40
2022-11-25T17:12:01.056Z,0.30
2022-11-25T17:14:29.401Z,0.52
2022-11-25T17:16:56.268Z,0.30
2022-11-25T17:19:23.180Z,0.40
2022-11-25T17:21:49.862Z,0.47
2022-11-25T17:24:21.515Z,0.38
2022-11-25T17:27:00.669Z,0.30
2022-11-25T17:29:46.030Z,0.25
2022-11-25T17:32:13.719Z,0.40
2022-11-25T17:34:40.303Z,0.30
2022-11-25T17:37:14.810Z,0.60
2022-11-25T17:39:41.615Z,0.50
2022-11-25T17:42:12.519Z,0.60
2022-11-25T17:44:40.293Z,0.35
2022-11-25T17:47:14.942Z,0.30
2022-11-25T17:49:42.025Z,0.53
2022-11-25T17:52:08.957Z,0.65
2022-11-25T17:54:36.583Z,0.45
2022-11-25T17:57:04.890Z,0.50
2022-11-25T17:59:33.025Z,0.40
2022-11-25T18:01:59.819Z,0.52
2022-11-25T18:04:31.308Z,0.43
2022-11-25T18:06:57.967Z,0.65
2022-11-25T18:09:24.553Z,1.00
2022-11-25T18:11:53.912Z,0.50
2022-11-25T18:14:24.675Z,0.40
2022-11-25T18:16:52.387Z,0.40
2022-11-25T18:19:19.035Z,0.60
2022-11-25T18:21:47.165Z,0.50
2022-11-25T18:24:14.287Z,0.38
2022-11-25T18:26:47.293Z,0.50
2022-11-25T18:29:19.446Z,0.60
2022-11-25T18:31:47.162Z,0.43
2022-11-25T18:34:15.454Z,0.55
2022-11-25T18:36:42.527Z,0.60
2022-11-25T18:39:09.944Z,0.50
2022-11-25T18:41:37.930Z,0.88
2022-11-25T18:44:05.116Z,0.60
2022-11-25T18:46:36.383Z,0.82
2022-11-25T18:49:11.304Z,0.75
2022-11-25T18:54:04.627Z,0.77
2022-11-25T18:56:31.254Z,0.70
2022-11-25T18:58:59.863Z,0.60
2022-11-25T19:01:26.933Z,0.80
2022-11-25T19:03:55.330Z,0.80
2022-11-25T19:06:23.029Z,0.90
2022-11-25T19:08:52.326Z,0.82
2022-11-25T19:11:26.914Z,0.95
2022-11-25T19:13:54.888Z,0.60
2022-11-25T19:16:22.486Z,0.60
2022-11-25T19:18:49.483Z,0.77
2022-11-25T19:21:17.171Z,0.70
2022-11-25T19:23:44.418Z,0.50
2022-11-25T19:26:16.824Z,0.52
2022-11-25T19:28:46.258Z,0.90
2022-11-25T19:31:13.312Z,0.60
2022-11-25T19:33:42.359Z,0.65
2022-11-25T19:36:27.166Z,1.02
2022-11-25T19:38:54.096Z,0.82
2022-11-25T19:41:21.111Z,0.80
2022-11-25T19:43:49.217Z,0.50
2022-11-25T19:46:29.620Z,0.80
2022-11-25T19:48:58.831Z,0.90
2022-11-25T19:51:27.242Z,0.80
2022-11-25T19:53:53.857Z,0.88
2022-11-25T19:56:24.316Z,1.02
2022-11-25T19:58:52.501Z,0.70
2022-11-25T20:01:20.905Z,0.60
2022-11-25T20:03:49.668Z,0.73
2022-11-25T20:06:20.246Z,0.75
2022-11-25T20:08:47.250Z,0.90
2022-11-25T20:11:16.592Z,0.80
2022-11-25T20:13:45.843Z,0.52
2022-11-25T20:16:19.148Z,0.68
2022-11-25T20:18:47.487Z,0.85
2022-11-25T20:21:18.859Z,0.80
2022-11-25T20:23:46.020Z,0.55
2022-11-25T20:26:19.301Z,0.80
2022-11-25T20:28:46.096Z,0.60
2022-11-25T20:31:14.057Z,0.50
2022-11-25T20:33:40.890Z,0.57
2022-11-25T20:36:13.821Z,0.73
2022-11-25T20:38:45.762Z,0.52
2022-11-25T20:41:12.822Z,0.60
2022-11-25T20:43:41.442Z,0.50
2022-11-25T20:46:34.352Z,0.50
2022-11-25T20:49:03.275Z,0.50
2022-11-25T20:51:29.863Z,0.60
2022-11-25T20:54:01.148Z,0.70
2022-11-25T20:56:28.369Z,0.50
2022-11-25T20:58:55.667Z,0.50
2022-11-25T21:01:22.531Z,0.40
2022-11-25T21:03:49.754Z,0.50
2022-11-25T21:06:20.699Z,0.40
2022-11-25T21:08:52.022Z,0.40
2022-11-25T21:11:19.323Z,0.50
2022-11-25T21:13:46.834Z,0.45
2022-11-25T21:16:14.741Z,0.38
2022-11-25T21:18:41.797Z,0.40
2022-11-25T21:21:16.266Z,0.63
2022-11-25T21:23:44.034Z,0.40
2022-11-25T21:26:16.902Z,0.45
2022-11-25T21:28:45.970Z,0.45
2022-11-25T21:31:18.650Z,0.60
2022-11-25T21:33:46.691Z,0.45
2022-11-25T21:36:22.636Z,0.20
2022-11-25T21:41:16.632Z,0.60
2022-11-25T21:43:45.728Z,0.50
2022-11-25T21:46:17.707Z,0.40
2022-11-25T21:48:44.613Z,0.80
2022-11-25T21:51:13.147Z,0.73
2022-11-25T21:53:39.946Z,0.70
2022-11-25T21:56:16.038Z,0.85
2022-11-25T21:58:44.008Z,1.20
2022-11-25T22:01:11.440Z,1.70
2022-11-25T22:03:38.644Z,1.90
2022-11-25T22:06:12.985Z,1.70
2022-11-25T22:11:10.641Z,1.10
2022-11-25T22:13:38.003Z,1.35
2022-11-25T22:16:05.362Z,1.17
2022-11-25T22:18:36.604Z,1.00
2022-11-25T22:21:03.996Z,0.90
2022-11-25T22:23:30.538Z,1.10
2022-11-25T22:25:57.765Z,0.73
2022-11-25T22:28:26.674Z,0.90
2022-11-25T22:31:12.227Z,0.68
2022-11-25T22:33:39.185Z,0.95
2022-11-25T22:36:06.162Z,0.50
2022-11-25T22:38:32.812Z,0.70
2022-11-25T22:41:02.318Z,0.60
2022-11-25T22:43:35.539Z,0.65
2022-11-25T22:46:03.454Z,0.60
2022-11-25T22:48:33.069Z,1.23
2022-11-25T22:50:59.986Z,0.95
2022-11-25T22:53:26.768Z,1.00
2022-11-25T22:55:57.950Z,1.23
2022-11-25T22:58:26.706Z,1.00
2022-11-25T23:00:55.271Z,0.80
2022-11-25T23:03:33.844Z,0.90
2022-11-25T23:06:03.184Z,0.57
2022-11-25T23:08:31.571Z,0.80
2022-11-25T23:10:58.274Z,0.60
2022-11-25T23:13:25.736Z,0.70
2022-11-25T23:15:59.033Z,0.90
2022-11-25T23:18:38.667Z,1.10
2022-11-25T23:21:06.606Z,0.90
2022-11-25T23:23:33.151Z,0.70
2022-11-25T23:26:00.066Z,0.68
2022-11-25T23:28:26.635Z,0.47
2022-11-25T23:30:58.525Z,0.50
2022-11-25T23:33:41.855Z,0.43
2022-11-25T23:36:09.578Z,0.52
2022-11-25T23:38:42.190Z,0.40
2022-11-25T23:41:15.277Z,0.50
2022-11-25T23:43:41.878Z,0.47
2022-11-25T23:46:10.324Z,5.05
2022-11-25T23:48:36.927Z,22.63
2022-11-25T23:51:03.640Z,23.10
2022-11-25T23:53:33.056Z,7.47
2022-11-25T23:55:59.749Z,9.00
2022-11-25T23:58:26.384Z,9.57
